Time;durP1;ratioP1;P1;durP2;ratioP2;P2;SDS_P1;SDS_P2;PMS_P1;PMS_P2;Temp;Humidity;BMP_temperature;BMP_pressure;BME280_temperature;BME280_humidity;BME280_pressure;Samples;Min_cycle;Max_cycle;Signal;HPM_P1;HPM_P2
2022/04/07 00:01:27;;;;;;;16.58;4.00;;;9.60;99.90;;;;;;5074347;28;20071;-59
2022/04/07 00:03:53;;;;;;;8.50;4.40;;;9.60;99.90;;;;;;5074184;28;20044;-59
2022/04/07 00:06:19;;;;;;;8.98;3.42;;;9.60;99.90;;;;;;5074417;28;20124;-58
2022/04/07 00:08:45;;;;;;;8.65;3.50;;;9.60;99.90;;;;;;5074405;28;20203;-58
2022/04/07 00:11:11;;;;;;;11.98;3.13;;;9.60;99.90;;;;;;5074495;28;20088;-59
2022/04/07 00:13:37;;;;;;;13.35;3.83;;;9.50;99.90;;;;;;5074306;28;20115;-58
2022/04/07 00:16:02;;;;;;;8.40;2.92;;;9.50;99.90;;;;;;5072856;28;20052;-58
2022/04/07 00:18:29;;;;;;;8.10;2.88;;;9.50;99.90;;;;;;5073977;28;20522;-58
2022/04/07 00:20:56;;;;;;;11.65;3.17;;;9.50;99.90;;;;;;5073239;28;20056;-59
2022/04/07 00:23:23;;;;;;;10.23;3.13;;;9.50;99.90;;;;;;5074102;28;20082;-58
2022/04/07 00:25:49;;;;;;;11.20;3.15;;;9.40;99.90;;;;;;5073888;28;20040;-59
2022/04/07 00:28:15;;;;;;;10.25;2.60;;;9.40;99.90;;;;;;5073784;28;20536;-59
2022/04/07 00:30:43;;;;;;;11.23;2.83;;;9.40;99.90;;;;;;5073501;28;20506;-59
2022/04/07 00:33:09;;;;;;;7.68;2.10;;;9.40;99.90;;;;;;5074000;28;20044;-59
2022/04/07 00:35:35;;;;;;;7.95;2.10;;;9.40;99.90;;;;;;5072366;28;20163;-58
2022/04/07 00:38:01;;;;;;;8.02;1.90;;;9.30;99.90;;;;;;5073665;28;20116;-58
2022/04/07 00:40:27;;;;;;;9.05;1.92;;;9.30;99.90;;;;;;5073788;28;20091;-58
2022/04/07 00:42:53;;;;;;;8.23;1.92;;;9.30;99.90;;;;;;5073088;28;20502;-59
2022/04/07 00:45:21;;;;;;;8.00;2.30;;;9.30;99.90;;;;;;5073503;28;20075;-59
2022/04/07 00:47:47;;;;;;;9.90;2.05;;;9.30;99.90;;;;;;5073450;28;20044;-58
2022/04/07 00:50:16;;;;;;;10.75;2.70;;;9.30;99.90;;;;;;5073547;28;20107;-59
2022/04/07 00:52:44;;;;;;;11.15;2.97;;;9.30;99.90;;;;;;5073221;28;20382;-59
2022/04/07 00:55:11;;;;;;;12.63;2.83;;;9.40;99.90;;;;;;5073375;28;20044;-59
2022/04/07 00:57:39;;;;;;;12.23;3.35;;;9.30;99.90;;;;;;5073203;28;20048;-59
2022/04/07 01:00:07;;;;;;;14.05;2.78;;;9.30;99.90;;;;;;5073090;28;20127;-59
2022/04/07 01:02:33;;;;;;;14.70;3.53;;;9.30;99.90;;;;;;5073258;28;20047;-58
2022/04/07 01:04:58;;;;;;;11.20;3.05;;;9.30;99.90;;;;;;5073267;28;20044;-59
2022/04/07 01:07:25;;;;;;;13.38;3.42;;;9.30;99.90;;;;;;5072985;28;20501;-59
2022/04/07 01:09:51;;;;;;;12.10;2.53;;;9.30;99.90;;;;;;5073007;28;20090;-58
2022/04/07 01:12:17;;;;;;;13.35;2.55;;;9.30;99.90;;;;;;5072936;28;20433;-59
2022/04/07 01:14:59;;;;;;;10.40;2.60;;;9.30;99.90;;;;;;5072860;28;20094;-58
2022/04/07 01:17:25;;;;;;;18.25;3.20;;;9.30;99.90;;;;;;5072693;28;20548;-59
2022/04/07 01:19:51;;;;;;;12.50;2.60;;;9.30;99.90;;;;;;5071487;28;20544;-59
2022/04/07 01:22:18;;;;;;;18.98;4.00;;;9.30;99.90;;;;;;5071599;28;20041;-58
2022/04/07 01:24:44;;;;;;;14.02;3.05;;;9.20;99.90;;;;;;5072776;28;20036;-58
2022/04/07 01:27:12;;;;;;;16.40;3.42;;;9.20;99.90;;;;;;5072593;28;20044;-58
2022/04/07 01:29:38;;;;;;;11.88;2.47;;;9.20;99.90;;;;;;5072729;28;20123;-58
2022/04/07 01:32:19;;;;;;;13.18;3.13;;;9.20;99.90;;;;;;5072317;28;20044;-58
2022/04/07 01:34:45;;;;;;;16.02;3.88;;;9.10;99.90;;;;;;5072650;28;20084;-59
2022/04/07 01:37:11;;;;;;;11.15;2.72;;;9.00;99.90;;;;;;5072373;28;20505;-58
2022/04/07 01:39:40;;;;;;;11.85;2.70;;;8.90;99.90;;;;;;5072710;28;20090;-58
2022/04/07 01:42:08;;;;;;;17.47;3.30;;;8.90;99.90;;;;;;5072339;28;20040;-58
2022/04/07 01:44:38;;;;;;;17.15;4.13;;;8.90;99.90;;;;;;5072563;28;20317;-58
2022/04/07 01:47:05;;;;;;;20.00;3.88;;;8.90;99.90;;;;;;5072457;28;20036;-58
2022/04/07 01:49:36;;;;;;;15.50;4.38;;;8.90;99.90;;;;;;5072493;28;20037;-58
2022/04/07 01:52:04;;;;;;;16.30;4.03;;;8.90;99.90;;;;;;5072127;28;20033;-58
2022/04/07 01:54:30;;;;;;;21.33;3.88;;;8.90;99.90;;;;;;5071570;28;20075;-59
2022/04/07 01:56:56;;;;;;;16.90;4.78;;;9.00;99.90;;;;;;5072039;28;20082;-59
2022/04/07 01:59:22;;;;;;;14.95;4.60;;;9.00;99.90;;;;;;5072179;28;20028;-59
2022/04/07 02:01:48;;;;;;;17.92;4.15;;;8.90;99.90;;;;;;5072122;28;20502;-59
2022/04/07 02:04:14;;;;;;;19.67;3.58;;;8.90;99.90;;;;;;5072170;28;20504;-58
2022/04/07 02:06:39;;;;;;;17.48;3.83;;;8.90;99.90;;;;;;5072008;28;20040;-59
2022/04/07 02:09:05;;;;;;;20.70;4.72;;;8.90;99.90;;;;;;5072047;28;20047;-59
2022/04/07 02:11:32;;;;;;;23.70;4.80;;;9.00;99.90;;;;;;5070902;28;20442;-59
2022/04/07 02:13:58;;;;;;;21.58;4.45;;;8.90;99.90;;;;;;5072094;28;20045;-59
2022/04/07 02:16:23;;;;;;;19.27;4.22;;;8.90;99.90;;;;;;5071904;28;20203;-60
2022/04/07 02:18:49;;;;;;;16.33;3.88;;;8.90;99.90;;;;;;5071891;28;20094;-60
2022/04/07 02:21:15;;;;;;;11.73;3.35;;;8.90;99.90;;;;;;5072045;28;20475;-61
2022/04/07 02:23:44;;;;;;;17.80;4.07;;;8.90;99.90;;;;;;5070398;28;20113;-60
2022/04/07 02:26:15;;;;;;;19.50;4.03;;;8.90;99.90;;;;;;5071824;28;20047;-60
2022/04/07 02:28:41;;;;;;;19.60;4.40;;;9.00;99.90;;;;;;5071775;28;20048;-60
2022/04/07 02:31:07;;;;;;;20.65;3.92;;;8.90;99.90;;;;;;5071467;28;20052;-60
2022/04/07 02:33:36;;;;;;;17.35;3.40;;;8.90;99.90;;;;;;5072085;28;20036;-60
2022/04/07 02:36:05;;;;;;;23.55;4.07;;;9.00;99.90;;;;;;5071598;28;20037;-60
2022/04/07 02:38:33;;;;;;;25.23;5.18;;;9.00;99.90;;;;;;5072097;28;20040;-60
2022/04/07 02:40:58;;;;;;;19.80;5.82;;;9.00;99.90;;;;;;5072007;28;20041;-61
2022/04/07 02:43:24;;;;;;;22.45;4.57;;;9.00;99.90;;;;;;5070324;28;20047;-62
2022/04/07 02:45:50;;;;;;;24.90;4.43;;;9.00;99.90;;;;;;5071533;28;20044;-62
2022/04/07 02:48:16;;;;;;;25.35;5.43;;;9.00;99.90;;;;;;5071380;28;20045;-62
2022/04/07 02:50:45;;;;;;;23.55;4.60;;;9.00;99.90;;;;;;5071581;28;20041;-62
2022/04/07 02:53:11;;;;;;;27.38;3.95;;;9.10;99.90;;;;;;5071682;28;20045;-61
2022/04/07 02:55:37;;;;;;;25.70;4.03;;;9.10;99.90;;;;;;5071648;28;20444;-61
2022/04/07 02:58:02;;;;;;;22.52;4.57;;;9.10;99.90;;;;;;5071481;28;20052;-62
2022/04/07 03:00:28;;;;;;;19.73;4.00;;;9.20;99.90;;;;;;5071444;28;20047;-62
2022/04/07 03:02:54;;;;;;;17.35;4.45;;;9.10;99.90;;;;;;5071306;28;20040;-62
2022/04/07 03:05:19;;;;;;;20.95;4.65;;;9.20;99.90;;;;;;5071546;28;20045;-62
2022/04/07 03:07:45;;;;;;;21.35;4.40;;;9.20;99.90;;;;;;5074828;28;20068;-62
2022/04/07 03:10:11;;;;;;;16.52;4.50;;;9.20;99.90;;;;;;5075394;28;20040;-62
2022/04/07 03:12:37;;;;;;;23.80;4.90;;;9.20;99.90;;;;;;5075166;28;20032;-61
2022/04/07 03:15:04;;;;;;;16.00;4.55;;;9.10;99.90;;;;;;5075242;28;20478;-62
2022/04/07 03:17:31;;;;;;;16.98;4.85;;;9.10;99.90;;;;;;5075121;28;20056;-62
2022/04/07 03:19:57;;;;;;;16.88;4.10;;;9.20;99.90;;;;;;5075336;28;20048;-62
2022/04/07 03:22:23;;;;;;;19.73;4.15;;;9.20;99.90;;;;;;5074943;28;20372;-61
2022/04/07 03:24:48;;;;;;;14.70;3.47;;;9.20;99.90;;;;;;5074863;28;20044;-62
2022/04/07 03:27:14;;;;;;;14.32;4.60;;;9.20;99.90;;;;;;5074993;28;20040;-61
2022/04/07 03:29:40;;;;;;;16.70;4.20;;;9.10;99.90;;;;;;5074906;28;20036;-61
2022/04/07 03:32:06;;;;;;;12.15;4.00;;;9.10;99.90;;;;;;5074947;28;20094;-61
2022/04/07 03:34:36;;;;;;;19.58;4.40;;;9.20;99.90;;;;;;5075333;28;20109;-61
2022/04/07 03:37:03;;;;;;;15.20;4.35;;;9.20;99.90;;;;;;5074720;28;20040;-61
2022/04/07 03:39:29;;;;;;;16.83;4.72;;;9.20;99.90;;;;;;5074853;28;20051;-62
2022/04/07 03:41:55;;;;;;;18.35;4.63;;;9.20;99.90;;;;;;5074773;28;20471;-61
2022/04/07 03:44:21;;;;;;;13.15;4.07;;;9.20;99.90;;;;;;5074514;28;20078;-61
2022/04/07 03:46:47;;;;;;;19.20;4.38;;;9.30;99.90;;;;;;5074882;28;20090;-62
2022/04/07 03:49:12;;;;;;;15.02;4.38;;;9.20;99.90;;;;;;5074873;28;20090;-62
2022/04/07 03:51:38;;;;;;;19.38;4.80;;;9.20;99.90;;;;;;5073485;28;20037;-62
2022/04/07 03:54:03;;;;;;;15.10;3.35;;;9.20;99.90;;;;;;5074620;28;20032;-62
2022/04/07 03:56:29;;;;;;;14.27;3.90;;;9.10;99.90;;;;;;5074425;28;20039;-63
2022/04/07 03:58:56;;;;;;;17.25;3.42;;;9.20;99.90;;;;;;5074755;28;20086;-61
2022/04/07 04:01:21;;;;;;;16.75;3.53;;;9.20;99.90;;;;;;5074289;28;20075;-61
2022/04/07 04:03:47;;;;;;;12.13;3.58;;;9.20;99.90;;;;;;5073215;28;20482;-61
2022/04/07 04:06:12;;;;;;;25.17;3.70;;;9.30;99.90;;;;;;5074410;28;20127;-61
2022/04/07 04:08:38;;;;;;;18.17;4.15;;;9.30;99.90;;;;;;5074126;28;20049;-61
2022/04/07 04:11:04;;;;;;;19.70;4.18;;;9.20;99.90;;;;;;5072944;28;20391;-62
2022/04/07 04:13:31;;;;;;;26.38;4.25;;;9.30;99.90;;;;;;5074139;28;20032;-61
2022/04/07 04:15:57;;;;;;;24.55;4.45;;;9.30;99.90;;;;;;5074371;28;20417;-61
2022/04/07 04:18:23;;;;;;;32.60;5.18;;;9.20;99.90;;;;;;5073293;28;20052;-61
2022/04/07 04:20:49;;;;;;;20.73;4.47;;;9.10;99.90;;;;;;5073950;28;20037;-61
2022/04/07 04:23:14;;;;;;;24.70;4.90;;;9.10;99.90;;;;;;5074126;28;20113;-62
2022/04/07 04:25:40;;;;;;;29.00;4.20;;;9.10;99.90;;;;;;5073938;28;20055;-62
2022/04/07 04:28:06;;;;;;;20.52;4.38;;;9.10;99.90;;;;;;5073907;28;20067;-61
2022/04/07 04:30:32;;;;;;;22.90;4.82;;;9.00;99.90;;;;;;5073910;28;20056;-61
2022/04/07 04:32:57;;;;;;;24.42;4.40;;;9.00;99.90;;;;;;5074388;28;20040;-61
2022/04/07 04:35:23;;;;;;;20.67;4.45;;;9.00;99.90;;;;;;5073598;28;20114;-61
2022/04/07 04:37:48;;;;;;;20.80;3.88;;;9.00;99.90;;;;;;5073623;28;20087;-61
2022/04/07 04:40:14;;;;;;;28.30;4.75;;;9.00;99.90;;;;;;5073692;28;20044;-61
2022/04/07 04:42:40;;;;;;;22.67;4.82;;;9.00;99.90;;;;;;5073556;28;20048;-61
2022/04/07 04:45:07;;;;;;;26.25;6.13;;;9.00;99.90;;;;;;5073962;28;20076;-61
2022/04/07 04:47:33;;;;;;;25.85;5.45;;;9.00;99.90;;;;;;5073544;28;20106;-61
2022/04/07 04:49:58;;;;;;;25.98;5.78;;;8.90;99.90;;;;;;5073482;28;20040;-61
2022/04/07 04:52:24;;;;;;;21.60;5.03;;;8.90;99.90;;;;;;5073495;28;20037;-61
2022/04/07 04:54:50;;;;;;;22.77;5.32;;;8.90;99.90;;;;;;5073414;28;20043;-61
2022/04/07 04:57:15;;;;;;;22.48;5.60;;;8.90;99.90;;;;;;5073130;28;20505;-61
2022/04/07 04:59:41;;;;;;;21.70;4.53;;;8.90;99.90;;;;;;5073162;28;20045;-61
2022/04/07 05:02:06;;;;;;;24.80;4.80;;;8.90;99.90;;;;;;5073219;28;20045;-61
2022/04/07 05:04:32;;;;;;;24.55;4.55;;;9.00;99.90;;;;;;5073271;28;20040;-61
2022/04/07 05:06:58;;;;;;;18.17;3.88;;;9.00;99.90;;;;;;5073132;28;20414;-61
2022/04/07 05:09:24;;;;;;;26.13;4.97;;;8.90;99.90;;;;;;5073281;28;20046;-61
2022/04/07 05:11:50;;;;;;;21.08;4.18;;;8.90;99.90;;;;;;5073345;28;20045;-61
2022/04/07 05:14:15;;;;;;;21.10;4.07;;;8.90;99.90;;;;;;5072806;28;20036;-61
2022/04/07 05:16:41;;;;;;;22.50;5.43;;;8.90;99.90;;;;;;5071943;28;20123;-61
2022/04/07 05:19:07;;;;;;;15.77;3.25;;;8.90;99.90;;;;;;5073005;28;20082;-61
2022/04/07 05:21:33;;;;;;;17.25;4.05;;;8.80;99.90;;;;;;5072827;28;20040;-62
2022/04/07 05:23:58;;;;;;;8.57;2.63;;;8.60;99.90;;;;;;5072727;28;20368;-61
2022/04/07 05:26:24;;;;;;;8.18;3.25;;;8.40;99.90;;;;;;5073148;28;20044;-62
2022/04/07 05:28:50;;;;;;;9.25;1.60;;;8.20;99.90;;;;;;5072270;28;20446;-60
2022/04/07 05:31:15;;;;;;;7.38;1.83;;;8.00;99.90;;;;;;5070494;28;20080;-61
2022/04/07 05:33:41;;;;;;;11.65;1.65;;;7.70;99.90;;;;;;5072639;28;20076;-61
2022/04/07 05:36:06;;;;;;;11.57;2.08;;;7.50;99.90;;;;;;5072880;28;20048;-61
2022/04/07 05:38:32;;;;;;;7.30;1.70;;;7.40;99.90;;;;;;5072475;28;20438;-61
2022/04/07 05:40:58;;;;;;;13.43;1.92;;;7.30;99.90;;;;;;5072397;28;20048;-61
2022/04/07 05:43:23;;;;;;;6.97;2.03;;;7.20;99.90;;;;;;5072254;28;20482;-62
2022/04/07 05:45:50;;;;;;;9.73;2.10;;;7.20;99.90;;;;;;5072467;28;20041;-61
2022/04/07 05:48:17;;;;;;;8.88;1.75;;;7.20;99.90;;;;;;5072389;28;20083;-62
2022/04/07 05:50:43;;;;;;;10.45;1.83;;;7.10;99.90;;;;;;5072251;28;20072;-61
2022/04/07 05:53:10;;;;;;;6.32;2.00;;;7.10;99.90;;;;;;5072499;28;20094;-62
2022/04/07 05:55:36;;;;;;;6.15;1.90;;;7.10;99.90;;;;;;5072312;28;20044;-62
2022/04/07 05:58:06;;;;;;;6.05;2.03;;;7.00;99.90;;;;;;5072458;28;20494;-61
2022/04/07 06:00:32;;;;;;;5.47;0.80;;;6.90;99.90;;;;;;5072038;28;20119;-62
2022/04/07 06:02:58;;;;;;;5.05;1.10;;;6.80;99.90;;;;;;5072144;28;20120;-62
2022/04/07 06:05:24;;;;;;;6.65;1.50;;;6.70;99.90;;;;;;5072267;28;20119;-61
2022/04/07 06:07:49;;;;;;;8.52;1.67;;;6.70;99.90;;;;;;5072210;28;20369;-61
2022/04/07 06:10:16;;;;;;;10.68;1.38;;;6.70;99.90;;;;;;5071800;28;20036;-61
2022/04/07 06:12:43;;;;;;;11.30;1.90;;;6.70;99.90;;;;;;5071757;28;20036;-62
2022/04/07 06:15:13;;;;;;;10.63;1.92;;;6.60;99.90;;;;;;5072069;28;20051;-62
2022/04/07 06:17:41;;;;;;;5.65;2.00;;;6.50;99.90;;;;;;5072216;28;20036;-62
2022/04/07 06:20:08;;;;;;;8.93;1.70;;;6.50;99.90;;;;;;5071807;28;20036;-62
2022/04/07 06:22:35;;;;;;;7.60;1.58;;;6.40;99.90;;;;;;5071630;28;20478;-62
2022/04/07 06:25:01;;;;;;;6.65;1.40;;;6.30;99.90;;;;;;5053930;28;20135;-60
2022/04/07 06:27:34;;;;;;;8.48;1.20;;;6.30;99.90;;;;;;5072061;28;20567;-61
2022/04/07 06:29:59;;;;;;;3.53;0.93;;;6.20;99.90;;;;;;5071717;28;20497;-61
2022/04/07 06:32:25;;;;;;;7.15;1.20;;;6.20;99.90;;;;;;5071552;28;20044;-61
2022/04/07 06:34:50;;;;;;;5.32;0.93;;;6.10;99.90;;;;;;5071697;28;20040;-61
2022/04/07 06:37:16;;;;;;;4.82;0.80;;;6.10;99.90;;;;;;5071524;28;20037;-60
2022/04/07 06:39:41;;;;;;;4.05;0.98;;;6.10;99.90;;;;;;5071733;28;20433;-61
2022/04/07 06:42:07;;;;;;;3.53;0.63;;;6.10;99.90;;;;;;5071758;28;20036;-61
2022/04/07 06:44:33;;;;;;;4.60;1.05;;;6.10;99.90;;;;;;5071713;28;20064;-60
2022/04/07 06:46:58;;;;;;;4.10;1.38;;;6.10;99.90;;;;;;5070515;28;20533;-61
2022/04/07 06:49:24;;;;;;;7.07;1.40;;;6.20;99.90;;;;;;5071526;28;20044;-62
2022/04/07 06:51:50;;;;;;;6.30;1.00;;;6.20;99.90;;;;;;5071411;28;20097;-62
2022/04/07 06:54:15;;;;;;;4.57;0.70;;;6.20;99.90;;;;;;5071482;28;20391;-61
2022/04/07 06:56:41;;;;;;;6.18;1.10;;;6.30;99.90;;;;;;5071703;28;20029;-61
2022/04/07 06:59:06;;;;;;;4.15;0.80;;;6.30;99.90;;;;;;5071437;28;20491;-61
2022/04/07 07:01:32;;;;;;;2.85;0.80;;;6.30;99.90;;;;;;5070302;28;20063;-61
2022/04/07 07:03:58;;;;;;;2.85;0.68;;;6.30;99.90;;;;;;5053372;28;20055;-61
2022/04/07 07:06:24;;;;;;;3.92;0.88;;;6.30;99.90;;;;;;5071404;28;20032;-61
2022/04/07 07:08:49;;;;;;;3.33;0.80;;;6.30;99.90;;;;;;5071075;28;20064;-61
2022/04/07 07:11:15;;;;;;;5.25;1.17;;;6.30;99.90;;;;;;5071462;28;20120;-61
2022/04/07 07:13:41;;;;;;;3.95;1.08;;;6.40;99.90;;;;;;5071427;28;20036;-60
2022/04/07 07:16:06;;;;;;;2.78;0.73;;;6.40;99.90;;;;;;5071332;28;20028;-61
2022/04/07 07:18:32;;;;;;;4.40;0.80;;;6.40;99.90;;;;;;5071414;28;20045;-61
2022/04/07 07:20:58;;;;;;;5.28;0.80;;;6.50;99.90;;;;;;5071314;28;20058;-61
2022/04/07 07:23:23;;;;;;;2.95;0.93;;;6.40;99.90;;;;;;5071634;28;20040;-61
2022/04/07 07:25:49;;;;;;;3.38;0.82;;;6.40;99.90;;;;;;5071367;28;20047;-60
2022/04/07 07:28:15;;;;;;;1.95;1.02;;;6.50;99.90;;;;;;5053018;28;20040;-61
2022/04/07 07:30:41;;;;;;;4.03;1.05;;;6.50;99.90;;;;;;5071065;28;20040;-62
2022/04/07 07:33:07;;;;;;;3.70;0.75;;;6.50;99.90;;;;;;5071173;28;20044;-62
2022/04/07 07:35:33;;;;;;;3.38;0.73;;;6.50;99.90;;;;;;5070066;28;20045;-62
2022/04/07 07:38:03;;;;;;;3.47;0.85;;;6.50;99.90;;;;;;5071582;28;20356;-62
2022/04/07 07:40:32;;;;;;;3.25;0.70;;;6.50;99.90;;;;;;5071257;28;20071;-62
2022/04/07 07:43:00;;;;;;;1.80;0.60;;;6.50;99.90;;;;;;5070138;28;20125;-62
2022/04/07 07:45:34;;;;;;;4.53;0.70;;;6.60;99.90;;;;;;5070999;28;20073;-62
2022/04/07 07:48:00;;;;;;;4.63;0.73;;;6.60;99.90;;;;;;5070945;28;20037;-62
2022/04/07 07:50:25;;;;;;;5.63;1.10;;;6.60;99.90;;;;;;5070822;28;20037;-61
2022/04/07 07:52:51;;;;;;;5.85;1.23;;;6.60;99.90;;;;;;5071554;28;20048;-62
2022/04/07 07:55:17;;;;;;;6.07;1.20;;;6.70;99.90;;;;;;5074831;28;20044;-62
2022/04/07 07:57:43;;;;;;;5.40;0.88;;;6.70;99.90;;;;;;5074684;28;20170;-62
2022/04/07 08:00:10;;;;;;;2.17;0.88;;;6.70;99.90;;;;;;5074345;28;20121;-61
2022/04/07 08:02:37;;;;;;;2.85;1.05;;;6.80;99.90;;;;;;5074336;28;20063;-62
2022/04/07 08:05:03;;;;;;;5.03;1.63;;;7.30;99.90;;;;;;5074137;28;20064;-62
2022/04/07 08:07:29;;;;;;;5.03;1.15;;;7.70;99.90;;;;;;5074347;28;20032;-62
2022/04/07 08:10:00;;;;;;;4.65;1.15;;;7.90;99.90;;;;;;5074333;28;20090;-61
2022/04/07 08:12:26;;;;;;;5.68;1.70;;;7.80;99.90;;;;;;5074604;28;20210;-61
2022/04/07 08:14:53;;;;;;;4.57;0.85;;;7.70;99.90;;;;;;5074243;28;20075;-62
2022/04/07 08:17:22;;;;;;;5.38;1.05;;;7.70;99.90;;;;;;5074176;28;20048;-61
2022/04/07 08:19:48;;;;;;;7.60;1.50;;;8.10;99.90;;;;;;5074329;28;20041;-61
2022/04/07 08:22:14;;;;;;;7.72;1.42;;;8.60;99.90;;;;;;5074109;28;20105;-61
2022/04/07 08:24:40;;;;;;;5.57;1.27;;;8.90;99.90;;;;;;5074219;28;20163;-62
2022/04/07 08:27:06;;;;;;;5.90;1.25;;;9.10;99.90;;;;;;5073815;28;20542;-62
2022/04/07 08:29:32;;;;;;;4.25;1.08;;;9.40;99.90;;;;;;5073799;28;20032;-62
2022/04/07 08:31:58;;;;;;;9.40;1.65;;;9.70;99.90;;;;;;5073658;28;20044;-61
2022/04/07 08:34:25;;;;;;;10.20;2.30;;;9.90;99.90;;;;;;5073974;28;20047;-61
2022/04/07 08:36:51;;;;;;;4.22;1.15;;;10.00;99.90;;;;;;5073904;28;20048;-61
2022/04/07 08:39:17;;;;;;;4.82;1.05;;;10.20;99.90;;;;;;5073708;28;20406;-61
2022/04/07 08:41:45;;;;;;;3.95;1.00;;;10.50;99.90;;;;;;5073523;28;20470;-61
2022/04/07 08:44:12;;;;;;;4.22;1.10;;;10.70;99.90;;;;;;5073518;28;20608;-59
2022/04/07 08:46:39;;;;;;;6.97;1.20;;;11.00;99.90;;;;;;5072154;28;20094;-59
2022/04/07 08:49:07;;;;;;;8.05;2.03;;;11.10;99.90;;;;;;5073565;28;20044;-59
2022/04/07 08:51:33;;;;;;;10.10;1.05;;;11.20;99.90;;;;;;5072112;28;20449;-60
2022/04/07 08:53:59;;;;;;;6.78;1.67;;;11.30;99.90;;;;;;5073535;28;20037;-61
2022/04/07 08:56:25;;;;;;;7.28;1.42;;;11.40;99.90;;;;;;5073190;28;20040;-62
2022/04/07 08:58:53;;;;;;;9.73;1.58;;;11.20;99.90;;;;;;5073280;28;20045;-61
2022/04/07 09:01:19;;;;;;;7.47;1.40;;;11.50;99.90;;;;;;5073160;28;20067;-62
2022/04/07 09:03:45;;;;;;;7.85;1.10;;;11.20;99.90;;;;;;5072960;28;20496;-62
2022/04/07 09:06:13;;;;;;;5.22;1.10;;;11.20;99.90;;;;;;5073057;28;20040;-61
2022/04/07 09:08:40;;;;;;;5.73;1.27;;;11.20;99.90;;;;;;5073188;28;20044;-61
2022/04/07 09:11:08;;;;;;;7.70;1.50;;;11.40;99.90;;;;;;5072996;28;20373;-61
2022/04/07 09:13:36;;;;;;;7.72;1.40;;;11.10;99.90;;;;;;5072944;28;20036;-60
2022/04/07 09:16:13;;;;;;;14.07;2.80;;;11.00;99.90;;;;;;5072693;28;20029;-61
2022/04/07 09:18:40;;;;;;;6.32;1.58;;;10.90;99.90;;;;;;5072962;28;20068;-61
2022/04/07 09:21:15;;;;;;;10.43;1.77;;;11.00;99.90;;;;;;5072746;28;20501;-60
2022/04/07 09:23:42;;;;;;;11.10;2.95;;;11.00;99.90;;;;;;5072802;28;20051;-61
2022/04/07 09:26:12;;;;;;;8.77;2.05;;;11.10;99.90;;;;;;5072555;28;20038;-61
2022/04/07 09:28:38;;;;;;;7.07;1.88;;;11.10;99.90;;;;;;5072757;28;20097;-61
2022/04/07 09:31:04;;;;;;;9.18;1.80;;;11.10;99.90;;;;;;5072570;28;20465;-60
2022/04/07 09:33:30;;;;;;;8.30;1.88;;;11.10;99.90;;;;;;5072641;28;20070;-61
2022/04/07 09:36:05;;;;;;;10.32;1.45;;;11.00;99.90;;;;;;5072501;28;20040;-61
2022/04/07 09:38:31;;;;;;;8.00;2.13;;;10.70;99.90;;;;;;5072482;28;20052;-59
2022/04/07 09:41:12;;;;;;;8.20;1.90;;;10.60;99.90;;;;;;5072469;28;20549;-60
2022/04/07 09:43:44;;;;;;;7.05;1.77;;;10.60;99.90;;;;;;5072586;28;20040;-60
2022/04/07 09:46:11;;;;;;;11.05;1.67;;;10.60;99.90;;;;;;5072435;28;20037;-60
2022/04/07 09:48:38;;;;;;;10.82;1.67;;;10.50;99.90;;;;;;5072254;28;20044;-60
2022/04/07 09:51:08;;;;;;;10.50;1.67;;;10.30;99.90;;;;;;5072003;28;20043;-61
2022/04/07 09:53:37;;;;;;;8.93;1.98;;;10.30;99.90;;;;;;5072588;28;20036;-61
2022/04/07 09:56:03;;;;;;;9.20;2.13;;;10.30;99.90;;;;;;5071259;28;20048;-60
2022/04/07 09:58:30;;;;;;;12.88;1.77;;;10.30;99.90;;;;;;5072495;28;20048;-60
2022/04/07 10:00:56;;;;;;;7.35;1.63;;;10.50;99.90;;;;;;5072294;28;20048;-61
2022/04/07 10:03:22;;;;;;;10.93;2.25;;;10.30;99.90;;;;;;5090406;28;20040;-60
2022/04/07 10:05:48;;;;;;;11.95;1.90;;;9.70;99.90;;;;;;5100767;28;20432;-60
2022/04/07 10:08:18;;;;;;;10.38;2.28;;;9.30;99.90;;;;;;5099119;28;20037;-61
2022/04/07 10:10:45;;;;;;;10.27;1.85;;;9.20;99.90;;;;;;5094431;28;20036;-59
2022/04/07 10:13:11;;;;;;;9.35;2.38;;;9.20;99.90;;;;;;5101415;28;20476;-60
2022/04/07 10:15:37;;;;;;;9.73;2.40;;;9.40;99.90;;;;;;5104594;28;20028;-60
2022/04/07 10:18:10;;;;;;;10.48;2.33;;;9.60;99.90;;;;;;5099954;28;20040;-60
2022/04/07 10:20:41;;;;;;;15.65;2.13;;;10.00;99.90;;;;;;5108742;28;20065;-61
2022/04/07 10:23:36;;;;;;;10.50;1.92;;;10.30;99.90;;;;;;5112309;28;20085;-60
2022/04/07 10:26:03;;;;;;;7.25;1.80;;;10.10;99.90;;;;;;5104338;28;20044;-61
2022/04/07 10:28:29;;;;;;;5.72;1.27;;;9.50;99.90;;;;;;5103207;28;20048;-60
2022/04/07 10:30:55;;;;;;;6.35;1.55;;;9.30;99.90;;;;;;5102600;28;20100;-60
2022/04/07 10:33:43;;;;;;;8.57;2.03;;;9.10;99.90;;;;;;5101554;28;20068;-60
2022/04/07 10:36:23;;;;;;;7.03;1.77;;;8.80;99.90;;;;;;5096274;28;20071;-61
2022/04/07 10:38:52;;;;;;;8.75;2.05;;;8.80;99.90;;;;;;5099112;28;20462;-60
2022/04/07 10:41:37;;;;;;;15.05;2.30;;;9.00;99.90;;;;;;5097846;28;20102;-60
2022/04/07 10:44:14;;;;;;;8.30;1.63;;;9.10;99.90;;;;;;5099771;28;20127;-59
2022/04/07 10:46:40;;;;;;;9.30;2.28;;;9.10;99.90;;;;;;5101973;28;20568;-59
2022/04/07 10:49:10;;;;;;;9.80;2.10;;;9.10;99.90;;;;;;5087999;28;20124;-60
2022/04/07 10:51:43;;;;;;;8.45;1.83;;;9.10;99.90;;;;;;5088435;28;20036;-60
2022/04/07 10:54:09;;;;;;;7.82;1.95;;;8.70;99.90;;;;;;5087642;28;20037;-60
2022/04/07 10:56:35;;;;;;;8.45;1.95;;;8.70;99.90;;;;;;5071931;28;20075;-59
2022/04/07 10:59:10;;;;;;;8.40;2.47;;;8.70;99.90;;;;;;5070375;28;20491;-60
2022/04/07 11:01:39;;;;;;;13.88;2.55;;;8.60;99.90;;;;;;5071707;28;20044;-60
2022/04/07 11:04:23;;;;;;;11.10;2.67;;;8.70;99.90;;;;;;5071461;28;20434;-60
2022/04/07 11:07:15;;;;;;;14.45;3.13;;;9.00;99.90;;;;;;5071650;28;20170;-60
2022/04/07 11:09:53;;;;;;;11.50;2.50;;;9.30;99.90;;;;;;5071739;28;20041;-60
2022/04/07 11:12:25;;;;;;;11.80;2.30;;;9.40;99.90;;;;;;5071438;28;20037;-60
2022/04/07 11:14:55;;;;;;;14.05;2.75;;;9.50;99.90;;;;;;5070281;28;20041;-60
2022/04/07 11:17:46;;;;;;;12.23;2.75;;;9.50;99.90;;;;;;5071396;28;20390;-60
2022/04/07 11:20:15;;;;;;;11.32;2.40;;;9.70;99.90;;;;;;5071308;28;20039;-61
2022/04/07 11:22:50;;;;;;;14.90;3.20;;;9.80;99.90;;;;;;5071216;28;20040;-61
2022/04/07 11:25:20;;;;;;;10.88;1.73;;;10.20;99.90;;;;;;5071762;28;20037;-61
2022/04/07 11:28:01;;;;;;;20.23;3.72;;;10.40;99.90;;;;;;5072917;28;20051;-60
2022/04/07 11:30:37;;;;;;;16.42;2.70;;;10.20;99.90;;;;;;5075069;28;20036;-60
2022/04/07 11:33:23;;;;;;;24.38;3.88;;;10.20;99.90;;;;;;5074971;28;20095;-60
2022/04/07 11:36:00;;;;;;;16.60;3.35;;;10.20;99.90;;;;;;5075104;28;20040;-60
2022/04/07 11:38:31;;;;;;;16.08;3.67;;;10.10;99.90;;;;;;5074953;28;20047;-60
2022/04/07 11:41:07;;;;;;;10.95;2.67;;;9.90;99.90;;;;;;5074788;28;20067;-60
2022/04/07 11:43:35;;;;;;;15.10;3.17;;;9.70;99.90;;;;;;5074846;28;20040;-61
2022/04/07 11:46:04;;;;;;;16.27;2.53;;;9.70;99.90;;;;;;5074559;28;20155;-60
2022/04/07 11:48:35;;;;;;;16.50;3.75;;;9.80;99.90;;;;;;5073729;28;20051;-60
2022/04/07 11:51:12;;;;;;;11.85;2.40;;;9.90;99.90;;;;;;5074701;28;20047;-61
2022/04/07 11:53:45;;;;;;;11.18;2.30;;;10.10;99.90;;;;;;5074780;28;20463;-61
2022/04/07 11:56:17;;;;;;;19.35;2.70;;;10.00;99.90;;;;;;5074544;28;20554;-60
2022/04/07 11:59:07;;;;;;;9.18;2.50;;;10.00;99.90;;;;;;5073426;28;20060;-60
2022/04/07 12:01:36;;;;;;;10.02;3.03;;;10.20;99.90;;;;;;5074370;28;20063;-61
2022/04/07 12:04:09;;;;;;;12.52;2.20;;;10.30;99.90;;;;;;5074417;28;20040;-60
2022/04/07 12:06:36;;;;;;;14.32;2.50;;;10.30;99.90;;;;;;5074371;28;20558;-60
2022/04/07 12:09:04;;;;;;;12.05;2.15;;;10.40;99.90;;;;;;5074609;28;20142;-60
2022/04/07 12:11:32;;;;;;;9.10;2.00;;;10.60;99.90;;;;;;5074361;28;20048;-60
2022/04/07 12:13:59;;;;;;;12.23;2.28;;;10.60;99.90;;;;;;5074179;28;20051;-60
2022/04/07 12:16:25;;;;;;;13.50;1.90;;;10.60;99.90;;;;;;5074028;28;20033;-60
2022/04/07 12:19:00;;;;;;;11.45;2.35;;;10.60;99.90;;;;;;5074476;28;20051;-60
2022/04/07 12:21:27;;;;;;;10.88;2.40;;;10.60;99.90;;;;;;5074236;28;20127;-61
2022/04/07 12:24:11;;;;;;;14.02;2.50;;;10.50;99.90;;;;;;5074188;28;20047;-60
2022/04/07 12:26:54;;;;;;;14.68;2.58;;;10.40;99.90;;;;;;5073890;28;20482;-60
2022/04/07 12:29:31;;;;;;;7.55;1.85;;;10.00;99.90;;;;;;5074184;28;20369;-60
2022/04/07 12:32:09;;;;;;;6.20;1.30;;;9.70;99.90;;;;;;5073517;28;20051;-59
2022/04/07 12:34:52;;;;;;;8.57;1.80;;;8.50;99.90;;;;;;5074207;28;20354;-59
2022/04/07 12:37:39;;;;;;;4.03;1.30;;;7.90;99.90;;;;;;5073965;28;20068;-60
2022/04/07 12:40:14;;;;;;;4.40;1.55;;;7.70;99.90;;;;;;5072995;28;20398;-60
2022/04/07 12:42:50;;;;;;;8.07;1.88;;;8.00;99.90;;;;;;5073920;28;20368;-59
2022/04/07 12:45:16;;;;;;;11.98;2.15;;;8.70;99.90;;;;;;5073770;28;20036;-60
2022/04/07 12:47:41;;;;;;;9.20;1.98;;;8.90;99.90;;;;;;5073550;28;20043;-60
2022/04/07 12:50:07;;;;;;;10.75;2.17;;;9.20;99.90;;;;;;5073519;28;20120;-60
2022/04/07 12:52:41;;;;;;;10.85;2.80;;;9.60;99.90;;;;;;5073201;28;20057;-60